Time;durP1;ratioP1;P1;durP2;ratioP2;P2;SDS_P1;SDS_P2;PMS_P1;PMS_P2;Temp;Humidity;BMP_temperature;BMP_pressure;BME280_temperature;BME280_humidity;BME280_pressure;Samples;Min_cycle;Max_cycle;Signal;HPM_P1;HPM_P2
2023/04/20 00:00:33;;;;;;;;;6.60;6.20;;;;;8.98;48.44;100298.81;5097124;28;8860;-59
2023/04/20 00:03:00;;;;;;;;;4.40;4.40;;;;;8.97;48.16;100297.13;5096486;28;8846;-59
2023/04/20 00:05:29;;;;;;;;;3.80;3.60;;;;;8.97;48.73;100294.47;5096905;28;8802;-59
2023/04/20 00:07:57;;;;;;;;;4.40;4.40;;;;;8.97;48.71;100290.97;5097167;28;8898;-57
2023/04/20 00:10:25;;;;;;;;;7.00;7.00;;;;;8.95;48.74;100288.41;5097025;28;9523;-58
2023/04/20 00:12:52;;;;;;;;;4.00;3.60;;;;;8.95;49.10;100284.94;5096951;28;8866;-58
2023/04/20 00:15:20;;;;;;;;;3.40;3.40;;;;;8.95;48.80;100275.13;5096837;28;8826;-58
2023/04/20 00:17:48;;;;;;;;;7.80;7.40;;;;;8.94;48.78;100269.91;5096692;28;8826;-58
2023/04/20 00:20:18;;;;;;;;;6.80;6.00;;;;;8.94;49.13;100269.91;5096714;28;8814;-58
2023/04/20 00:22:46;;;;;;;;;4.00;4.00;;;;;8.91;48.83;100268.34;5096635;28;8830;-59
2023/04/20 00:25:13;;;;;;;;;4.80;3.40;;;;;8.87;48.97;100261.53;5095955;28;9592;-58
2023/04/20 00:27:41;;;;;;;;;8.00;6.20;;;;;8.85;49.04;100255.47;5095817;28;8918;-58
2023/04/20 00:30:09;;;;;;;;;7.40;6.40;;;;;8.86;49.24;100253.66;5096650;28;8849;-59
2023/04/20 00:32:37;;;;;;;;;4.00;4.00;;;;;8.84;49.32;100253.78;5096558;28;8956;-61
2023/04/20 00:35:05;;;;;;;;;5.20;4.80;;;;;8.83;49.42;100241.44;5096383;28;8854;-60
2023/04/20 00:37:33;;;;;;;;;6.40;6.40;;;;;8.83;49.08;100238.78;5096557;28;8940;-60
2023/04/20 00:40:01;;;;;;;;;4.00;4.00;;;;;8.84;49.23;100231.69;5096406;28;8960;-60
2023/04/20 00:42:29;;;;;;;;;4.00;4.00;;;;;8.81;49.17;100230.06;5096839;28;8822;-60
2023/04/20 00:44:57;;;;;;;;;5.20;4.80;;;;;8.81;49.61;100230.06;5096399;28;8864;-60
2023/04/20 00:47:24;;;;;;;;;6.00;6.00;;;;;8.80;49.11;100224.88;5096610;28;8814;-62
2023/04/20 00:49:52;;;;;;;;;6.80;6.00;;;;;8.79;49.43;100226.69;5096561;28;8878;-61
2023/04/20 00:52:20;;;;;;;;;6.20;6.00;;;;;8.77;49.39;100220.63;5096483;28;8822;-61
2023/04/20 00:54:48;;;;;;;;;6.00;4.80;;;;;8.77;49.46;100222.44;5096080;28;8834;-62
2023/04/20 00:57:16;;;;;;;;;3.00;3.00;;;;;8.74;49.59;100220.81;5095403;28;8860;-62
2023/04/20 00:59:44;;;;;;;;;6.00;4.00;;;;;8.72;49.56;100212.13;5095924;28;8903;-60
2023/04/20 01:02:11;;;;;;;;;5.20;4.00;;;;;8.71;49.77;100212.22;5095899;28;8874;-62
2023/04/20 01:04:40;;;;;;;;;3.40;3.00;;;;;8.70;49.77;100211.38;5096191;28;9519;-61
2023/04/20 01:07:07;;;;;;;;;8.60;6.00;;;;;8.67;49.73;100203.59;5096127;28;8851;-58
2023/04/20 01:09:36;;;;;;;;;4.00;4.00;;;;;8.66;49.86;100191.28;5096557;28;9527;-58
2023/04/20 01:12:03;;;;;;;;;6.00;6.00;;;;;8.65;49.80;100194.06;5096359;28;8949;-60
2023/04/20 01:14:31;;;;;;;;;2.20;2.20;;;;;8.64;49.94;100193.22;5096237;28;8830;-58
2023/04/20 01:16:59;;;;;;;;;6.00;5.60;;;;;8.63;49.54;100191.50;5095947;28;8834;-59
2023/04/20 01:19:26;;;;;;;;;6.40;6.40;;;;;8.61;50.38;100174.84;5095910;28;8850;-59
2023/04/20 01:21:55;;;;;;;;;4.80;4.00;;;;;8.59;49.84;100183.88;5095827;28;8806;-60
2023/04/20 01:24:22;;;;;;;;;5.60;4.80;;;;;8.54;50.14;100170.91;5095350;28;8810;-59
2023/04/20 01:26:50;;;;;;;;;4.00;4.00;;;;;8.48;50.16;100171.31;5095833;28;8821;-58
2023/04/20 01:29:18;;;;;;;;;4.80;3.80;;;;;8.42;50.10;100157.59;5095789;28;8830;-60
2023/04/20 01:31:46;;;;;;;;;5.80;4.40;;;;;8.36;50.29;100150.91;5095546;28;8846;-58
2023/04/20 01:34:14;;;;;;;;;3.80;3.00;;;;;8.34;50.33;100150.16;5095939;28;8826;-58
2023/04/20 01:36:41;;;;;;;;;6.00;6.00;;;;;8.31;50.42;100134.47;5096615;28;8814;-59
2023/04/20 01:39:09;;;;;;;;;4.40;4.40;;;;;8.30;50.40;100142.50;5100110;28;8838;-60
2023/04/20 01:41:37;;;;;;;;;4.00;3.00;;;;;8.29;50.33;100133.69;5100198;28;8846;-59
2023/04/20 01:44:04;;;;;;;;;4.00;4.00;;;;;8.29;50.18;100133.69;5100893;28;8814;-58
2023/04/20 01:46:32;;;;;;;;;3.20;3.00;;;;;8.31;50.61;100134.47;5100173;28;8856;-58
2023/04/20 01:49:00;;;;;;;;;4.80;4.80;;;;;8.30;50.56;100129.25;5099663;28;8829;-58
2023/04/20 01:51:28;;;;;;;;;5.60;5.60;;;;;8.29;50.54;100123.09;5099644;28;8834;-58
2023/04/20 01:53:56;;;;;;;;;4.80;4.80;;;;;8.31;50.68;100123.84;5099375;28;8802;-58
2023/04/20 01:56:23;;;;;;;;;4.00;3.80;;;;;8.32;50.67;100109.63;5099454;28;8821;-58
2023/04/20 01:58:51;;;;;;;;;4.00;4.00;;;;;8.31;50.51;100105.28;5099698;28;8899;-58
2023/04/20 02:01:19;;;;;;;;;8.40;6.80;;;;;8.31;50.39;100109.72;5099773;28;8830;-58
2023/04/20 02:03:47;;;;;;;;;4.80;4.80;;;;;8.30;50.56;100102.72;5099411;28;8842;-60
2023/04/20 02:06:16;;;;;;;;;6.60;5.20;;;;;8.30;50.78;100097.41;5099744;28;9515;-60
2023/04/20 02:08:44;;;;;;;;;6.00;4.80;;;;;8.30;50.75;100108.84;5099584;28;8830;-61
2023/04/20 02:11:22;;;;;;;;;6.40;6.00;;;;;8.32;50.75;100100.81;5099659;28;8810;-60
2023/04/20 02:13:50;;;;;;;;;7.00;6.00;;;;;8.33;51.30;100102.50;5099477;28;8871;-58
2023/04/20 02:16:20;;;;;;;;;6.80;6.00;;;;;8.32;51.04;100098.16;5099277;28;8825;-58
2023/04/20 02:18:48;;;;;;;;;4.40;3.20;;;;;8.32;51.15;100101.66;5098404;28;8818;-58
2023/04/20 02:21:16;;;;;;;;;6.00;4.00;;;;;8.31;51.18;100094.66;5098452;28;8852;-58
2023/04/20 02:23:43;;;;;;;;;7.60;6.00;;;;;8.31;51.59;100094.66;5097818;28;8798;-58
2023/04/20 02:26:11;;;;;;;;;4.40;4.00;;;;;8.33;51.14;100094.53;5098628;28;8923;-59
2023/04/20 02:28:39;;;;;;;;;6.20;6.20;;;;;8.33;51.48;100092.75;5099190;28;8834;-58
2023/04/20 02:31:07;;;;;;;;;7.20;6.60;;;;;8.33;51.42;100087.44;5099306;28;8880;-58
2023/04/20 02:33:35;;;;;;;;;4.00;4.00;;;;;8.33;51.80;100086.59;5099032;28;8886;-58
2023/04/20 02:36:02;;;;;;;;;6.00;6.00;;;;;8.30;51.70;100082.34;5098646;28;8921;-58
2023/04/20 02:38:30;;;;;;;;;3.20;3.20;;;;;8.30;51.88;100081.50;5098889;28;8836;-58
2023/04/20 02:40:58;;;;;;;;;6.00;6.00;;;;;8.29;51.53;100082.47;5099016;28;8849;-58
2023/04/20 02:43:26;;;;;;;;;3.80;3.20;;;;;8.27;51.75;100082.56;5099615;28;8838;-58
2023/04/20 02:45:54;;;;;;;;;3.80;3.80;;;;;8.28;51.58;100086.91;5098484;28;8818;-58
2023/04/20 02:48:22;;;;;;;;;3.40;3.40;;;;;8.26;51.88;100074.69;5097501;28;8810;-58
2023/04/20 02:50:49;;;;;;;;;8.20;4.40;;;;;8.25;51.58;100076.50;5098565;28;8818;-58
2023/04/20 02:53:17;;;;;;;;;7.00;6.20;;;;;8.24;52.11;100077.47;5098257;28;8872;-58
2023/04/20 02:55:45;;;;;;;;;3.20;3.20;;;;;8.24;51.71;100066.84;5098392;28;8814;-58
2023/04/20 02:58:13;;;;;;;;;1.80;1.80;;;;;8.23;51.91;100069.59;5098243;28;8813;-59
2023/04/20 03:00:40;;;;;;;;;3.20;3.20;;;;;8.22;51.99;100071.41;5098404;28;8841;-59
2023/04/20 03:03:08;;;;;;;;;4.40;4.00;;;;;8.24;51.98;100069.50;5098081;28;8912;-58
2023/04/20 03:05:36;;;;;;;;;6.00;5.60;;;;;8.25;51.83;100068.56;5098392;28;8836;-60
2023/04/20 03:08:06;;;;;;;;;3.80;3.60;;;;;8.27;51.87;100066.63;5098268;28;8822;-60
2023/04/20 03:10:34;;;;;;;;;6.60;6.00;;;;;8.25;51.84;100060.59;5098232;28;8895;-60
2023/04/20 03:13:02;;;;;;;;;3.80;3.00;;;;;8.24;51.86;100060.69;5098100;28;8837;-60
2023/04/20 03:15:30;;;;;;;;;5.60;5.20;;;;;8.25;51.76;100057.06;5098284;28;8841;-57
2023/04/20 03:17:58;;;;;;;;;4.00;4.00;;;;;8.25;52.09;100054.44;5097984;28;8825;-57
2023/04/20 03:20:26;;;;;;;;;3.00;3.00;;;;;8.26;51.56;100051.69;5097561;28;8818;-60
2023/04/20 03:22:54;;;;;;;;;4.00;4.00;;;;;8.29;52.16;100048.81;5098051;28;8818;-61
2023/04/20 03:25:22;;;;;;;;;4.00;3.00;;;;;8.28;52.15;100051.59;5097579;28;8822;-61
2023/04/20 03:27:49;;;;;;;;;3.00;3.00;;;;;8.29;52.18;100055.94;5097493;28;8818;-61
2023/04/20 03:30:17;;;;;;;;;2.00;2.00;;;;;8.27;51.58;100053.38;5098053;28;8814;-61
2023/04/20 03:32:45;;;;;;;;;3.60;3.60;;;;;8.28;52.18;100043.63;5097982;28;8822;-60
2023/04/20 03:35:13;;;;;;;;;3.40;3.40;;;;;8.24;52.20;100040.34;5097704;28;8826;-59
2023/04/20 03:37:41;;;;;;;;;4.00;3.00;;;;;8.23;52.45;100043.09;5097622;28;8833;-59
2023/04/20 03:40:09;;;;;;;;;4.80;4.40;;;;;8.21;52.19;100037.03;5097811;28;9507;-60
2023/04/20 03:42:37;;;;;;;;;4.00;4.00;;;;;8.18;52.52;100032.75;5098158;28;8845;-60
2023/04/20 03:45:05;;;;;;;;;3.60;3.40;;;;;8.16;52.67;100029.38;5097456;28;8887;-59
2023/04/20 03:47:33;;;;;;;;;8.20;7.00;;;;;8.17;52.69;100033.72;5096962;28;9587;-58
2023/04/20 03:50:00;;;;;;;;;5.60;4.40;;;;;8.16;52.97;100029.38;5097267;28;8826;-60
2023/04/20 03:52:28;;;;;;;;;4.00;3.80;;;;;8.16;53.06;100037.31;5097337;28;9600;-59
2023/04/20 03:54:56;;;;;;;;;5.20;5.20;;;;;8.17;53.09;100032.84;5097134;28;8829;-59
2023/04/20 03:57:24;;;;;;;;;7.40;7.00;;;;;8.17;53.67;100038.16;5097081;28;8841;-59
2023/04/20 03:59:51;;;;;;;;;5.40;5.20;;;;;8.16;53.41;100031.16;5097130;28;9004;-60
2023/04/20 04:02:21;;;;;;;;;8.00;6.40;;;;;8.15;53.43;100035.59;5096925;28;8832;-58
2023/04/20 04:04:49;;;;;;;;;6.40;6.20;;;;;8.13;53.56;100032.22;5096888;28;8829;-57
2023/04/20 04:07:17;;;;;;;;;3.60;3.60;;;;;8.13;53.92;100026.91;5097174;28;8860;-58
2023/04/20 04:09:44;;;;;;;;;6.00;5.60;;;;;8.13;53.80;100026.91;5097607;28;8845;-58
2023/04/20 04:12:12;;;;;;;;;6.60;6.00;;;;;8.13;54.45;100032.22;5097060;28;8810;-59
2023/04/20 04:14:40;;;;;;;;;6.80;6.40;;;;;8.09;54.66;100030.72;5096850;28;8846;-58
2023/04/20 04:17:08;;;;;;;;;4.00;3.80;;;;;8.06;54.78;100030.94;5096361;28;8814;-59
2023/04/20 04:19:36;;;;;;;;;7.80;7.40;;;;;8.05;54.92;100034.53;5096500;28;8895;-57
2023/04/20 04:22:03;;;;;;;;;4.00;4.00;;;;;8.05;54.88;100025.75;5096245;28;8821;-58
2023/04/20 04:24:32;;;;;;;;;7.20;6.40;;;;;8.01;55.16;100022.47;5096147;28;8805;-59
2023/04/20 04:27:01;;;;;;;;;7.00;6.20;;;;;8.02;54.66;100028.59;5096615;28;9480;-60
2023/04/20 04:29:28;;;;;;;;;7.00;6.00;;;;;8.01;55.28;100027.75;5096177;28;8957;-58
2023/04/20 04:31:57;;;;;;;;;6.40;6.20;;;;;8.01;55.39;100022.47;5095966;28;9496;-58
2023/04/20 04:34:28;;;;;;;;;7.00;7.00;;;;;7.97;56.09;100026.25;5095381;28;8844;-58
2023/04/20 04:36:56;;;;;;;;;4.40;3.20;;;;;7.97;55.67;100030.69;5095559;28;8810;-59
2023/04/20 04:39:24;;;;;;;;;4.40;4.40;;;;;7.97;56.00;100023.59;5095722;28;8944;-58
2023/04/20 04:41:52;;;;;;;;;6.00;6.00;;;;;7.99;56.20;100028.81;5095583;28;8834;-61
2023/04/20 04:44:20;;;;;;;;;6.60;6.20;;;;;7.97;56.21;100030.69;5095728;28;8826;-58
2023/04/20 04:46:48;;;;;;;;;4.00;3.00;;;;;7.96;56.37;100024.56;5096011;28;8832;-59
2023/04/20 04:49:16;;;;;;;;;7.80;7.60;;;;;7.95;56.57;100032.59;5096821;28;8821;-58
2023/04/20 04:51:44;;;;;;;;;3.40;3.00;;;;;7.94;56.99;100026.47;5096076;28;8853;-58
2023/04/20 04:54:12;;;;;;;;;7.00;7.00;;;;;7.92;57.12;100033.66;5096061;28;9648;-60
2023/04/20 04:56:40;;;;;;;;;4.00;4.00;;;;;7.91;57.29;100031.97;5096158;28;8841;-58
2023/04/20 04:59:07;;;;;;;;;6.40;6.40;;;;;7.94;57.12;100025.59;5096194;28;9487;-58
2023/04/20 05:01:36;;;;;;;;;4.00;3.40;;;;;7.94;56.93;100022.97;5095656;28;8854;-59
2023/04/20 05:04:04;;;;;;;;;6.20;6.20;;;;;7.93;57.29;100024.78;5095325;28;8836;-59
2023/04/20 05:06:32;;;;;;;;;6.00;6.00;;;;;7.91;57.20;100031.13;5094859;28;8818;-59
2023/04/20 05:09:00;;;;;;;;;3.80;3.80;;;;;7.88;57.06;100024.22;5094529;28;8826;-60
2023/04/20 05:11:28;;;;;;;;;4.00;4.00;;;;;7.89;57.67;100033.00;5094680;28;9507;-60
2023/04/20 05:13:56;;;;;;;;;6.40;6.40;;;;;7.83;57.70;100028.97;5094612;28;8850;-61
2023/04/20 05:16:24;;;;;;;;;8.60;6.60;;;;;7.79;58.02;100037.25;5094339;28;9608;-60
2023/04/20 05:18:52;;;;;;;;;7.40;7.40;;;;;7.72;58.25;100036.81;5094734;28;8907;-61
2023/04/20 05:21:20;;;;;;;;;7.60;6.00;;;;;7.66;58.63;100046.13;5094625;28;8829;-60
2023/04/20 05:23:48;;;;;;;;;7.00;5.20;;;;;7.59;58.89;100050.13;5094583;28;8982;-61
2023/04/20 05:26:16;;;;;;;;;8.60;8.60;;;;;7.54;59.09;100050.44;5094713;28;9831;-60
2023/04/20 05:28:44;;;;;;;;;5.60;4.00;;;;;7.53;59.29;100050.53;5094664;28;8977;-60
2023/04/20 05:31:11;;;;;;;;;7.40;7.00;;;;;7.50;59.64;100046.25;5094348;28;8842;-59
2023/04/20 05:33:39;;;;;;;;;9.00;9.00;;;;;7.48;59.80;100052.59;5093986;28;8826;-61
2023/04/20 05:36:07;;;;;;;;;6.00;6.00;;;;;7.46;60.26;100052.72;5093848;28;8877;-60
2023/04/20 05:38:35;;;;;;;;;6.40;6.00;;;;;7.47;60.00;100049.13;5093426;28;8842;-61
2023/04/20 05:41:03;;;;;;;;;9.00;7.00;;;;;7.47;60.23;100045.63;5093462;28;8834;-61
2023/04/20 05:43:31;;;;;;;;;7.00;6.80;;;;;7.47;60.74;100053.56;5092702;28;8838;-59
2023/04/20 05:45:59;;;;;;;;;3.80;3.80;;;;;7.45;61.66;100052.81;5092624;28;8849;-59
2023/04/20 05:48:27;;;;;;;;;7.40;7.00;;;;;7.42;61.74;100058.34;5092736;28;9610;-59
2023/04/20 05:50:57;;;;;;;;;7.00;6.20;;;;;7.40;61.55;100057.56;5092313;28;8837;-60
2023/04/20 05:53:25;;;;;;;;;8.00;7.80;;;;;7.38;61.84;100051.50;5092471;28;8834;-60
2023/04/20 05:55:52;;;;;;;;;6.60;4.40;;;;;7.36;62.86;100059.56;5092539;28;8849;-59
2023/04/20 05:58:20;;;;;;;;;4.00;4.00;;;;;7.34;62.74;100060.63;5092050;28;8836;-58
2023/04/20 06:00:48;;;;;;;;;7.60;5.80;;;;;7.35;62.87;100057.84;5092559;28;8835;-59
2023/04/20 06:03:16;;;;;;;;;5.60;5.60;;;;;7.35;62.70;100059.69;5093410;28;9102;-58
2023/04/20 06:05:44;;;;;;;;;6.80;6.80;;;;;7.32;62.98;100055.41;5093186;28;8984;-59
2023/04/20 06:08:12;;;;;;;;;6.80;6.00;;;;;7.32;63.22;100054.56;5092435;28;8968;-60
2023/04/20 06:10:40;;;;;;;;;3.00;3.00;;;;;7.34;63.15;100050.03;5092043;28;9511;-57
2023/04/20 06:13:08;;;;;;;;;6.00;6.00;;;;;7.37;63.38;100050.69;5091332;28;8817;-59
2023/04/20 06:15:36;;;;;;;;;4.00;4.00;;;;;7.38;63.55;100054.16;5092393;28;8844;-57
2023/04/20 06:18:04;;;;;;;;;3.20;3.00;;;;;7.37;63.75;100053.34;5092300;28;8837;-61
2023/04/20 06:20:32;;;;;;;;;5.80;5.80;;;;;7.38;64.33;100046.22;5092441;28;8834;-61
2023/04/20 06:23:00;;;;;;;;;7.60;7.60;;;;;7.41;63.91;100051.31;5092262;28;8825;-60
2023/04/20 06:25:27;;;;;;;;;4.80;4.40;;;;;7.45;63.93;100042.22;5095669;28;8837;-61
2023/04/20 06:27:55;;;;;;;;;6.00;6.00;;;;;7.50;63.64;100048.09;5096484;28;8899;-59
2023/04/20 06:30:23;;;;;;;;;4.40;4.40;;;;;7.54;63.73;100041.63;5096345;28;8866;-58
2023/04/20 06:32:51;;;;;;;;;7.00;5.60;;;;;7.58;64.18;100037.81;5096788;28;8875;-61
2023/04/20 06:35:19;;;;;;;;;5.20;5.20;;;;;7.61;63.31;100032.31;5096740;28;8821;-60
2023/04/20 06:37:47;;;;;;;;;6.40;5.60;;;;;7.60;64.38;100036.78;5096331;28;8848;-59
2023/04/20 06:40:15;;;;;;;;;7.80;6.00;;;;;7.62;63.93;100031.34;5096782;28;8833;-59
2023/04/20 06:42:43;;;;;;;;;6.00;5.60;;;;;7.65;64.19;100028.53;5097456;28;8879;-59
2023/04/20 06:45:10;;;;;;;;;7.40;7.00;;;;;7.65;64.04;100033.81;5096516;28;8826;-59
2023/04/20 06:47:38;;;;;;;;;5.20;4.40;;;;;7.68;63.92;100033.59;5095431;28;9511;-60
2023/04/20 06:50:08;;;;;;;;;3.40;3.40;;;;;7.70;63.76;100028.09;5095248;28;8849;-60
2023/04/20 06:52:36;;;;;;;;;4.00;4.00;;;;;7.76;63.38;100037.47;5095477;28;8857;-60
2023/04/20 06:55:04;;;;;;;;;6.40;6.00;;;;;7.77;63.46;100025.91;5095586;28;8833;-58
2023/04/20 06:57:32;;;;;;;;;7.80;5.60;;;;;7.78;63.34;100024.94;5095243;28;8826;-58
2023/04/20 07:00:00;;;;;;;;;5.40;4.00;;;;;7.81;63.74;100020.28;5095619;28;8984;-58
2023/04/20 07:02:28;;;;;;;;;3.00;3.00;;;;;7.81;63.35;100015.00;5096258;28;8956;-60
2023/04/20 07:04:56;;;;;;;;;5.20;4.80;;;;;7.86;63.37;100012.88;5096311;28;8833;-58
2023/04/20 07:07:24;;;;;;;;;4.40;3.60;;;;;7.88;63.35;100018.94;5096120;28;8952;-59
2023/04/20 07:09:52;;;;;;;;;6.40;4.80;;;;;7.93;63.16;100018.63;5096092;28;8891;-59
2023/04/20 07:12:20;;;;;;;;;6.00;4.40;;;;;7.95;62.88;100014.91;5096330;28;8838;-59
2023/04/20 07:14:47;;;;;;;;;5.60;5.60;;;;;7.94;62.99;100015.00;5096607;28;9531;-58
2023/04/20 07:17:15;;;;;;;;;6.80;6.00;;;;;7.94;62.92;100013.22;5096754;28;9561;-59
2023/04/20 07:19:44;;;;;;;;;4.80;4.80;;;;;7.96;63.00;100013.09;5095034;28;8862;-58
2023/04/20 07:22:12;;;;;;;;;7.40;6.40;;;;;7.94;63.06;100015.00;5095128;28;8854;-59
2023/04/20 07:24:40;;;;;;;;;6.60;6.60;;;;;7.91;63.10;100002.81;5094988;28;8862;-59
2023/04/20 07:27:08;;;;;;;;;7.80;7.40;;;;;7.93;63.26;100003.56;5094903;28;8814;-61
2023/04/20 07:29:36;;;;;;;;;3.60;2.60;;;;;7.95;62.87;100011.41;5094713;28;8838;-60
2023/04/20 07:32:04;;;;;;;;;8.60;7.20;;;;;7.95;63.53;100012.25;5094668;28;8959;-61
2023/04/20 07:34:31;;;;;;;;;5.20;3.80;;;;;7.94;63.52;100007.91;5094944;28;8818;-58
2023/04/20 07:36:59;;;;;;;;;7.80;7.80;;;;;7.93;63.45;100006.22;5094881;28;9747;-60
2023/04/20 07:39:29;;;;;;;;;7.80;6.00;;;;;7.95;63.85;100008.75;5095075;28;8837;-58
2023/04/20 07:41:57;;;;;;;;;6.00;6.00;;;;;7.98;63.89;100009.38;5095782;28;8822;-60
2023/04/20 07:44:25;;;;;;;;;8.20;6.20;;;;;8.05;63.41;100005.38;5096120;28;8849;-61
2023/04/20 07:46:56;;;;;;;;;10.00;8.60;;;;;8.12;64.14;100011.09;5094820;28;9005;-60
2023/04/20 07:49:24;;;;;;;;;7.40;7.00;;;;;8.16;63.71;100008.16;5095852;28;8834;-58
2023/04/20 07:51:52;;;;;;;;;7.40;7.00;;;;;8.18;63.70;100014.19;5095538;28;8856;-61
2023/04/20 07:54:31;;;;;;;;;6.00;6.00;;;;;8.12;63.89;100014.59;5096278;28;8838;-60
2023/04/20 07:56:58;;;;;;;;;7.40;6.40;;;;;8.06;63.90;100012.38;5095375;28;8830;-59
2023/04/20 07:59:26;;;;;;;;;7.00;5.80;;;;;8.02;64.48;100012.69;5095840;28;9039;-60
2023/04/20 08:01:55;;;;;;;;;7.40;7.00;;;;;7.98;64.35;100017.34;5095365;28;8814;-59
2023/04/20 08:04:23;;;;;;;;;6.00;5.60;;;;;7.93;64.98;100019.47;5094989;28;8846;-59
2023/04/20 08:06:52;;;;;;;;;2.20;1.00;;;;;7.86;65.33;100012.88;5094683;28;8859;-58
2023/04/20 08:09:20;;;;;;;;;8.00;6.80;;;;;7.83;64.94;100018.38;5094413;28;8860;-58
2023/04/20 08:11:48;;;;;;;;;7.80;7.40;;;;;7.82;65.31;100014.03;5095137;28;8956;-60
2023/04/20 08:14:16;;;;;;;;;7.00;6.40;;;;;7.82;65.16;100016.69;5094702;28;8837;-59
2023/04/20 08:16:44;;;;;;;;;4.40;4.40;;;;;7.80;65.16;100023.91;5094904;28;8853;-61
2023/04/20 08:19:12;;;;;;;;;6.00;4.00;;;;;7.80;65.92;100017.72;5095230;28;8830;-59
2023/04/20 08:21:41;;;;;;;;;7.00;7.00;;;;;7.94;65.61;100009.69;5094948;28;8800;-61
2023/04/20 08:24:09;;;;;;;;;7.00;6.80;;;;;8.19;65.06;100010.59;5095540;28;8822;-60
2023/04/20 08:26:37;;;;;;;;;10.00;9.00;;;;;8.46;64.52;100005.19;5095422;28;8818;-60
2023/04/20 08:29:06;;;;;;;;;9.20;7.00;;;;;8.72;64.08;99993.56;5095254;28;8826;-61
2023/04/20 08:31:34;;;;;;;;;9.20;7.00;;;;;8.98;63.64;99993.41;5095721;28;8892;-60
2023/04/20 08:34:02;;;;;;;;;9.60;9.00;;;;;9.23;63.13;99990.69;5095568;28;8829;-60
2023/04/20 08:36:31;;;;;;;;;6.60;6.60;;;;;9.46;63.28;99987.16;5095301;28;8964;-60
2023/04/20 08:38:58;;;;;;;;;9.50;8.50;;;;;9.64;62.69;99976.97;5094772;28;8830;-59
2023/04/20 08:41:26;;;;;;;;;6.50;6.00;;;;;9.71;62.41;99981.69;5095199;28;8869;-58
2023/04/20 08:43:54;;;;;;;;;8.00;8.00;;;;;9.73;62.68;99987.75;5094796;28;8927;-59
2023/04/20 08:46:23;;;;;;;;;5.00;4.00;;;;;9.69;63.15;99986.28;5093718;28;8822;-60
2023/04/20 08:48:50;;;;;;;;;5.50;5.50;;;;;9.77;62.90;99996.34;5094400;28;8814;-59
2023/04/20 08:51:18;;;;;;;;;3.00;1.00;;;;;9.87;62.52;99992.03;5093809;28;8853;-60
2023/04/20 08:53:46;;;;;;;;;6.00;5.00;;;;;9.96;62.70;99989.50;5094144;28;8853;-59
2023/04/20 08:56:14;;;;;;;;;6.25;6.00;;;;;10.05;62.14;99991.50;5094205;28;8952;-60
2023/04/20 08:58:42;;;;;;;;;8.75;7.50;;;;;10.06;62.21;99993.22;5094046;28;8903;-60
2023/04/20 09:01:10;;;;;;;;;7.00;6.50;;;;;10.07;62.33;99981.59;5093650;28;8826;-59
2023/04/20 09:03:39;;;;;;;;;6.00;5.00;;;;;10.12;62.18;99992.75;5093939;28;8858;-61
2023/04/20 09:06:07;;;;;;;;;7.75;4.25;;;;;10.15;62.21;99992.50;5094307;28;8894;-61
2023/04/20 09:08:37;;;;;;;;;3.00;3.00;;;;;10.08;62.08;99996.59;5094103;28;8822;-61
2023/04/20 09:11:04;;;;;;;;;6.50;6.00;;;;;9.99;62.30;99993.75;5094513;28;8850;-61
2023/04/20 09:13:32;;;;;;;;;5.50;5.50;;;;;9.85;62.82;99994.81;5094284;28;8861;-61
2023/04/20 09:16:00;;;;;;;;;7.50;6.50;;;;;9.71;62.95;100004.78;5094256;28;8857;-60
2023/04/20 09:18:28;;;;;;;;;3.50;3.50;;;;;9.60;63.59;100002.94;5093933;28;9793;-60
2023/04/20 09:20:56;;;;;;;;;6.00;4.00;;;;;9.59;63.37;100006.56;5093679;28;8837;-61
2023/04/20 09:23:23;;;;;;;;;6.00;6.00;;;;;9.69;63.79;100004.91;5093681;28;8849;-61
2023/04/20 09:25:51;;;;;;;;;5.00;5.00;;;;;9.87;62.83;100005.34;5093278;28;8849;-62
2023/04/20 09:28:19;;;;;;;;;5.50;5.50;;;;;10.06;63.09;99995.88;5093713;28;8849;-61
2023/04/20 09:30:47;;;;;;;;;6.25;4.50;;;;;10.40;62.35;99996.78;5094204;28;8850;-61
2023/04/20 09:33:17;;;;;;;;;7.00;6.25;;;;;10.72;61.94;99990.63;5094251;28;8891;-60
2023/04/20 09:35:45;;;;;;;;;2.50;2.50;;;;;10.97;60.84;99990.34;5093551;28;8844;-61
2023/04/20 09:38:13;;;;;;;;;2.00;1.00;;;;;11.40;60.37;99980.56;5092425;28;8956;-61
2023/04/20 09:40:40;;;;;;;;;3.00;3.00;;;;;11.84;59.75;99980.38;5092964;28;9544;-59
2023/04/20 09:43:09;;;;;;;;;5.00;5.00;;;;;12.06;58.83;99980.25;5092277;28;8852;-61
2023/04/20 09:45:37;;;;;;;;;6.00;6.00;;;;;11.88;58.63;99976.47;5092777;28;8838;-59
2023/04/20 09:48:05;;;;;;;;;3.75;3.75;;;;;11.74;59.16;99971.47;5093428;28;8949;-61
2023/04/20 09:50:33;;;;;;;;;4.00;3.50;;;;;11.91;58.57;99978.88;5092976;28;8842;-60
2023/04/20 09:53:14;;;;;;;;;1.50;1.50;;;;;11.90;58.36;99965.69;5093714;28;8970;-62
2023/04/20 09:55:43;;;;;;;;;4.00;4.00;;;;;11.73;58.54;99968.91;5094279;28;8956;-61
2023/04/20 09:58:10;;;;;;;;;6.00;4.00;;;;;11.51;58.75;99967.16;5095007;28;8833;-60
2023/04/20 10:00:38;;;;;;;;;4.00;3.00;;;;;11.35;58.75;99976.53;5097366;28;8972;-59
2023/04/20 10:03:07;;;;;;;;;4.50;3.25;;;;;11.21;58.99;99985.69;5097290;28;8903;-59
2023/04/20 10:05:38;;;;;;;;;4.00;4.00;;;;;11.05;59.11;99977.25;5097099;28;8875;-61
2023/04/20 10:08:06;;;;;;;;;4.50;3.75;;;;;10.91;59.40;99984.66;5097231;28;8844;-59
2023/04/20 10:10:34;;;;;;;;;0.25;0.25;;;;;10.77;60.45;99983.09;5096718;28;8854;-61
2023/04/20 10:13:02;;;;;;;;;4.00;3.00;;;;;10.75;59.73;99978.84;5096815;28;8952;-60
2023/04/20 10:15:30;;;;;;;;;3.75;3.50;;;;;10.77;59.96;99974.25;5095272;28;8970;-60
2023/04/20 10:17:58;;;;;;;;;3.25;3.25;;;;;10.81;59.46;99979.22;5094703;28;8845;-60
2023/04/20 10:20:27;;;;;;;;;4.00;4.00;;;;;10.91;59.11;99979.34;5095634;28;9547;-61
2023/04/20 10:22:55;;;;;;;;;2.50;2.00;;;;;10.97;59.10;99979.69;5095912;28;8864;-59
2023/04/20 10:25:23;;;;;;;;;3.00;3.00;;;;;11.00;58.51;99979.41;5095455;28;8848;-58
2023/04/20 10:27:50;;;;;;;;;1.00;1.00;;;;;10.95;58.69;99972.78;5095923;28;8853;-59
2023/04/20 10:30:18;;;;;;;;;4.00;3.00;;;;;10.93;58.94;99978.22;5096236;28;8838;-61
2023/04/20 10:32:47;;;;;;;;;2.50;2.50;;;;;10.88;58.51;99975.09;5096572;28;8841;-59
2023/04/20 10:35:15;;;;;;;;;2.00;2.00;;;;;10.88;58.95;99977.75;5096716;28;8818;-59
2023/04/20 10:37:43;;;;;;;;;1.00;0.75;;;;;10.94;58.78;99971.09;5095674;28;8837;-59
2023/04/20 10:40:11;;;;;;;;;2.50;2.50;;;;;11.08;58.14;99970.81;5095435;28;8834;-61
2023/04/20 10:42:39;;;;;;;;;4.00;4.00;;;;;11.22;57.79;99966.03;5096868;28;8841;-59
2023/04/20 10:45:07;;;;;;;;;4.00;3.75;;;;;11.29;57.39;99967.25;5097669;28;8848;-59
2023/04/20 10:47:36;;;;;;;;;3.00;3.00;;;;;11.24;57.70;99957.94;5097405;28;8830;-59
2023/04/20 10:50:05;;;;;;;;;3.50;3.00;;;;;11.19;58.10;99965.44;5097006;28;8834;-60
2023/04/20 10:52:33;;;;;;;;;1.00;1.00;;;;;11.34;57.68;99961.53;5096446;28;8841;-59
2023/04/20 10:55:02;;;;;;;;;2.50;2.50;;;;;11.64;56.73;99959.00;5096995;28;8953;-61
2023/04/20 10:57:30;;;;;;;;;1.00;1.00;;;;;11.97;56.18;99970.34;5097034;28;8826;-60
2023/04/20 10:59:58;;;;;;;;;0.00;0.00;;;;;12.20;55.82;99958.56;5096148;28;8852;-59
2023/04/20 11:02:26;;;;;;;;;3.00;3.00;;;;;12.41;54.94;99951.38;5095387;28;8860;-61
2023/04/20 11:04:59;;;;;;;;;4.00;4.00;;;;;12.60;55.05;99954.16;5096675;28;8838;-60
2023/04/20 11:07:27;;;;;;;;;3.00;3.00;;;;;13.14;53.98;99965.31;5095968;28;9584;-59
2023/04/20 11:09:56;;;;;;;;;4.75;4.75;;;;;13.29;53.25;99947.88;5094703;28;8834;-59
2023/04/20 11:12:24;;;;;;;;;4.50;3.50;;;;;13.15;53.80;99957.13;5094897;28;8857;-61
2023/04/20 11:14:52;;;;;;;;;3.50;3.00;;;;;12.97;53.77;99947.25;5095312;28;8838;-59
2023/04/20 11:17:20;;;;;;;;;6.75;5.50;;;;;12.83;54.34;99953.78;5095270;28;8833;-59
2023/04/20 11:19:49;;;;;;;;;6.00;5.50;;;;;12.69;54.50;99950.66;5094537;28;8861;-61
2023/04/20 11:22:18;;;;;;;;;7.00;6.50;;;;;12.62;54.36;99947.66;5094634;28;8912;-58
2023/04/20 11:24:46;;;;;;;;;3.50;3.50;;;;;12.63;54.84;99946.72;5094658;28;8846;-59
2023/04/20 11:27:14;;;;;;;;;6.00;6.00;;;;;12.50;54.55;99946.09;5094053;28;8973;-59
2023/04/20 11:29:42;;;;;;;;;4.50;4.50;;;;;12.25;54.78;99951.84;5093951;28;8850;-59
2023/04/20 11:32:10;;;;;;;;;6.00;4.50;;;;;12.26;53.98;99964.25;5094318;28;8906;-59
2023/04/20 11:34:39;;;;;;;;;8.75;7.50;;;;;13.23;52.88;99943.09;5094328;28;8923;-59
2023/04/20 11:37:07;;;;;;;;;6.00;6.00;;;;;14.69;50.13;99941.63;5094269;28;8837;-59
2023/04/20 11:39:35;;;;;;;;;8.75;8.50;;;;;15.85;47.70;99921.94;5094326;28;9093;-59
2023/04/20 11:42:03;;;;;;;;;4.00;4.00;;;;;16.84;45.75;99923.91;5094701;28;9008;-60
2023/04/20 11:44:31;;;;;;;;;7.50;6.25;;;;;17.49;44.03;99914.19;5094489;28;8841;-59